Time;durP1;ratioP1;P1;durP2;ratioP2;P2;SDS_P1;SDS_P2;PMS_P1;PMS_P2;Temp;Humidity;BMP_temperature;BMP_pressure;BME280_temperature;BME280_humidity;BME280_pressure;Samples;Min_cycle;Max_cycle;Signal;HPM_P1;HPM_P2
2022/12/27 00:00:58;;;;;;;17.15;6.80;;;;;;;0.73;100.00;102207.84;5082394;28;20024;-79
2022/12/27 00:03:23;;;;;;;16.23;6.43;;;;;;;0.79;100.00;102223.47;5075711;28;20044;-79
2022/12/27 00:05:48;;;;;;;17.38;6.45;;;;;;;0.72;100.00;102225.72;5072049;28;20048;-79
2022/12/27 00:08:14;;;;;;;20.02;7.47;;;;;;;0.69;100.00;102214.56;5072363;28;20067;-79
2022/12/27 00:10:39;;;;;;;16.13;6.57;;;;;;;0.79;100.00;102236.31;5072262;28;20032;-79
2022/12/27 00:13:04;;;;;;;11.90;6.40;;;;;;;0.68;100.00;102217.91;5072020;28;20133;-79
2022/12/27 00:15:32;;;;;;;13.23;6.30;;;;;;;0.72;100.00;102226.63;5075517;28;20110;-79
2022/12/27 00:17:58;;;;;;;18.00;6.68;;;;;;;0.81;100.00;102237.25;5083353;28;20029;-79
2022/12/27 00:20:23;;;;;;;11.75;6.30;;;;;;;0.78;100.00;102241.38;5071739;28;20368;-79
2022/12/27 00:22:48;;;;;;;15.90;6.80;;;;;;;0.74;100.00;102242.09;5072495;28;20055;-79
2022/12/27 00:25:13;;;;;;;20.00;6.93;;;;;;;0.69;100.00;102224.81;5084995;28;20111;-79
2022/12/27 00:27:39;;;;;;;15.98;6.30;;;;;;;0.81;100.00;102228.66;5072878;28;20020;-79
2022/12/27 00:30:05;;;;;;;15.65;6.97;;;;;;;0.87;100.00;102237.47;5072239;28;20479;-79
2022/12/27 00:32:30;;;;;;;14.25;6.43;;;;;;;0.86;100.00;102237.44;5074772;28;20056;-79
2022/12/27 00:34:56;;;;;;;17.30;6.70;;;;;;;0.83;100.00;102224.47;5092918;28;20059;-79
2022/12/27 00:37:21;;;;;;;18.00;6.93;;;;;;;0.80;100.00;102221.78;5077003;28;20048;-79
2022/12/27 00:39:47;;;;;;;14.57;6.03;;;;;;;0.90;100.00;102236.72;5071660;28;20107;-79
2022/12/27 00:42:12;;;;;;;18.67;7.40;;;;;;;0.86;100.00;102222.91;5071689;28;20383;-79
2022/12/27 00:44:37;;;;;;;17.33;6.85;;;;;;;0.79;100.00;102210.66;5072446;28;20020;-79
2022/12/27 00:47:03;;;;;;;17.33;6.03;;;;;;;0.87;100.00;102234.03;5071294;28;20112;-79
2022/12/27 00:49:28;;;;;;;18.58;6.85;;;;;;;0.87;100.00;102231.47;5085032;28;20032;-79
2022/12/27 00:51:53;;;;;;;14.63;5.47;;;;;;;0.89;100.00;102235.84;5055148;28;20055;-79
2022/12/27 00:54:19;;;;;;;14.55;6.40;;;;;;;0.86;100.00;102229.72;5071062;28;20024;-79
2022/12/27 00:56:44;;;;;;;13.85;6.50;;;;;;;0.88;100.00;102236.69;5071972;28;20388;-79
2022/12/27 00:59:10;;;;;;;18.08;6.07;;;;;;;0.93;100.00;102244.56;5071887;28;20040;-79
2022/12/27 01:01:36;;;;;;;10.70;6.10;;;;;;;0.85;100.00;102248.50;5071322;28;20024;-80
2022/12/27 01:04:02;;;;;;;13.93;5.80;;;;;;;0.84;100.00;102254.47;5078949;28;20024;-79
2022/12/27 01:06:31;;;;;;;16.58;5.90;;;;;;;0.84;100.00;102260.47;5079236;28;20111;-79
2022/12/27 01:08:56;;;;;;;18.85;6.20;;;;;;;0.82;100.00;102256.97;5076534;28;20024;-79
2022/12/27 01:11:23;;;;;;;18.33;5.95;;;;;;;0.82;100.00;102250.97;5080192;28;20024;-79
2022/12/27 01:13:48;;;;;;;12.27;5.72;;;;;;;0.88;100.00;102270.06;5071963;28;20107;-79
2022/12/27 01:16:20;;;;;;;11.32;5.82;;;;;;;0.89;100.00;102281.19;5069129;28;20107;-79
2022/12/27 01:18:46;;;;;;;12.75;6.22;;;;;;;0.91;100.00;102287.25;5075881;28;20029;-79
2022/12/27 01:21:14;;;;;;;15.45;5.60;;;;;;;0.88;100.00;102272.63;5075187;28;20021;-79
2022/12/27 01:23:40;;;;;;;14.43;5.60;;;;;;;0.82;100.00;102274.94;5074731;28;20028;-79
2022/12/27 01:26:11;;;;;;;14.35;5.70;;;;;;;0.89;100.00;102287.22;5075486;28;20013;-79
2022/12/27 01:28:36;;;;;;;19.98;6.63;;;;;;;0.90;100.00;102280.38;5088307;28;20024;-79
2022/12/27 01:31:06;;;;;;;20.83;6.65;;;;;;;0.93;100.00;102283.06;5076407;28;20078;-79
2022/12/27 01:33:32;;;;;;;18.92;5.88;;;;;;;0.97;100.00;102290.06;5075215;28;20032;-79
2022/12/27 01:36:05;;;;;;;17.65;6.20;;;;;;;0.99;100.00;102290.16;5088940;28;20020;-79
2022/12/27 01:38:30;;;;;;;21.00;6.10;;;;;;;0.88;100.00;102279.44;5075143;28;20047;-79
2022/12/27 01:40:56;;;;;;;16.67;5.93;;;;;;;0.90;100.00;102267.53;5075797;28;20107;-79
2022/12/27 01:43:36;;;;;;;18.05;6.03;;;;;;;1.02;100.00;102296.28;5074471;28;20423;-80
2022/12/27 01:46:02;;;;;;;20.40;6.20;;;;;;;1.04;100.00;102281.78;5075054;28;20468;-79
2022/12/27 01:48:27;;;;;;;12.52;5.40;;;;;;;1.01;100.00;102284.22;5079346;28;20040;-79
2022/12/27 01:51:00;;;;;;;19.85;5.63;;;;;;;1.03;100.00;102287.75;5083981;28;20060;-79
2022/12/27 01:53:40;;;;;;;12.55;5.47;;;;;;;1.02;100.00;102288.56;5074539;28;20468;-79
2022/12/27 01:56:29;;;;;;;18.98;5.88;;;;;;;1.08;100.00;102304.22;5075027;28;20403;-79
2022/12/27 01:59:01;;;;;;;14.05;6.20;;;;;;;1.06;100.00;102303.28;5074177;28;20028;-79
2022/12/27 02:01:33;;;;;;;19.25;5.38;;;;;;;1.06;100.00;102312.66;5074838;28;20119;-79
2022/12/27 02:04:04;;;;;;;23.90;6.30;;;;;;;0.97;100.00;102307.16;5066644;28;20214;-79
2022/12/27 02:06:31;;;;;;;19.52;6.07;;;;;;;1.02;100.00;102321.94;5081918;28;20043;-79
2022/12/27 02:09:27;;;;;;;21.90;6.13;;;;;;;1.04;100.00;102316.84;5080384;28;20028;-79
2022/12/27 02:11:55;;;;;;;23.38;6.30;;;;;;;1.02;100.00;102323.66;5078851;28;20036;-79
2022/12/27 02:14:20;;;;;;;20.60;5.68;;;;;;;1.05;100.00;102324.66;5082286;28;20463;-79
2022/12/27 02:16:46;;;;;;;16.88;5.65;;;;;;;1.02;100.00;102315.94;5077101;28;20044;-79
2022/12/27 02:19:17;;;;;;;15.25;5.72;;;;;;;1.01;100.00;102309.91;5073704;28;20020;-79
2022/12/27 02:22:04;;;;;;;16.33;5.78;;;;;;;1.12;100.00;102324.06;5074652;28;20081;-79
2022/12/27 02:24:43;;;;;;;14.50;5.15;;;;;;;1.12;100.00;102325.75;5061692;28;20025;-79
2022/12/27 02:27:40;;;;;;;23.83;5.93;;;;;;;1.10;100.00;102327.38;5086760;28;20024;-79
2022/12/27 02:30:08;;;;;;;15.50;5.45;;;;;;;1.10;100.00;102328.25;5074596;28;20029;-79
2022/12/27 02:32:53;;;;;;;16.30;5.15;;;;;;;1.09;100.00;102326.50;5073247;28;20376;-79
2022/12/27 02:35:46;;;;;;;17.15;6.20;;;;;;;1.13;100.00;102333.50;5086464;28;20085;-79
2022/12/27 02:38:20;;;;;;;18.33;6.10;;;;;;;1.18;100.00;102328.56;5061750;28;20422;-79
2022/12/27 02:55:20;;;;;;;15.77;5.30;;;;;;;1.13;100.00;102328.38;5079137;28;20489;-79
2022/12/27 02:58:01;;;;;;;16.17;4.82;;;;;;;1.15;100.00;102328.44;5061220;28;20062;-79
2022/12/27 03:03:37;;;;;;;11.95;5.00;;;;;;;1.20;100.00;102318.34;5076967;28;20112;-79
2022/12/27 03:16:24;;;;;;;16.35;5.50;;;;;;;1.28;100.00;102310.13;5064116;28;20175;-79
2022/12/27 03:19:11;;;;;;;15.73;4.95;;;;;;;1.28;100.00;102324.66;5073582;28;20123;-79
2022/12/27 03:27:18;;;;;;;19.00;6.65;;;;;;;1.38;100.00;102335.34;5073292;28;20214;-79
2022/12/27 03:35:21;;;;;;;16.00;6.38;;;;;;;1.35;100.00;102349.78;5058209;28;20449;-79
2022/12/27 03:38:02;;;;;;;14.20;6.35;;;;;;;1.35;100.00;102357.47;5073069;28;20065;-79
2022/12/27 03:43:09;;;;;;;19.02;6.85;;;;;;;1.34;100.00;102356.59;5072789;28;20650;-79
2022/12/27 03:43:26;;;;;;;24.17;6.38;;;;;;;1.27;100.00;102364.00;5060579;28;20025;-80
2022/12/27 03:49:03;;;;;;;18.13;6.38;;;;;;;1.22;100.00;102355.25;5073119;28;20120;-79
2022/12/27 03:51:34;;;;;;;16.23;6.25;;;;;;;1.24;100.00;102358.72;5071874;28;20086;-79
2022/12/27 03:54:07;;;;;;;14.15;5.85;;;;;;;1.15;100.00;102355.00;5073823;28;20017;-79
2022/12/27 03:56:33;;;;;;;17.17;6.45;;;;;;;1.23;100.00;102370.72;5065426;28;20028;-79
2022/12/27 03:58:59;;;;;;;17.70;6.30;;;;;;;1.27;100.00;102371.69;5080325;28;20032;-79
2022/12/27 04:01:25;;;;;;;19.38;5.18;;;;;;;1.27;100.00;102369.13;5072358;28;20103;-79
2022/12/27 04:03:50;;;;;;;19.80;5.43;;;;;;;1.28;100.00;102376.03;5071866;28;20112;-79
2022/12/27 04:06:15;;;;;;;17.58;5.07;;;;;;;1.26;100.00;102375.09;5072396;28;20031;-79
2022/12/27 04:35:59;;;;;;;;;;;;;;;1.01;100.00;102375.81;5081858;28;20114;-79
2022/12/27 04:38:24;;;;;;;20.30;5.63;;;;;;;0.97;100.00;102382.50;5077523;28;19912;-79
2022/12/27 04:54:57;;;;;;;15.27;4.53;;;;;;;1.04;100.00;102381.94;5071470;28;20035;-79
2022/12/27 04:57:24;;;;;;;14.20;4.25;;;;;;;0.99;100.00;102380.03;5082155;28;20016;-79
2022/12/27 05:02:33;;;;;;;16.38;5.40;;;;;;;0.94;100.00;102390.97;5076055;28;20059;-79
2022/12/27 05:04:58;;;;;;;20.02;4.85;;;;;;;0.90;100.00;102380.53;5090364;28;20460;-79
2022/12/27 05:15:36;;;;;;;;;;;;;;;0.88;100.00;102400.09;5079565;28;20037;-80
2022/12/27 05:18:02;;;;;;;15.05;4.70;;;;;;;0.86;100.00;102394.06;5077092;28;20295;-80
2022/12/27 05:20:27;;;;;;;23.25;5.93;;;;;;;0.92;100.00;102396.88;5088530;28;20043;-79
2022/12/27 05:25:41;;;;;;;16.75;5.20;;;;;;;1.02;100.00;102398.13;5063649;28;20484;-79
2022/12/27 05:28:09;;;;;;;20.73;5.22;;;;;;;1.04;100.00;102402.50;5075507;28;20052;-79
2022/12/27 05:30:36;;;;;;;24.52;5.72;;;;;;;1.10;100.00;102405.31;5088896;28;20361;-79
2022/12/27 05:33:02;;;;;;;20.77;5.90;;;;;;;1.11;100.00;102403.59;5075871;28;20020;-80
2022/12/27 05:35:28;;;;;;;20.45;4.95;;;;;;;1.12;100.00;102424.25;5074436;28;20047;-80
2022/12/27 05:37:54;;;;;;;21.95;5.25;;;;;;;1.08;100.00;102424.94;5075728;28;20460;-79
2022/12/27 05:40:21;;;;;;;21.08;5.75;;;;;;;1.11;100.00;102430.19;5075228;28;20120;-79
2022/12/27 05:42:46;;;;;;;15.77;5.00;;;;;;;1.01;100.00;102417.78;5074782;28;20460;-80
2022/12/27 05:45:13;;;;;;;16.02;5.15;;;;;;;1.00;100.00;102439.13;5075046;28;20028;-80
2022/12/27 05:47:38;;;;;;;16.33;4.93;;;;;;;0.87;100.00;102434.31;5075070;28;20123;-79
2022/12/27 05:50:04;;;;;;;18.35;5.10;;;;;;;0.84;100.00;102444.47;5088226;28;20162;-79
2022/12/27 05:52:29;;;;;;;23.10;5.00;;;;;;;0.87;100.00;102435.19;5075429;28;20036;-79
2022/12/27 05:54:57;;;;;;;14.60;4.70;;;;;;;0.91;100.00;102455.03;5068327;28;20021;-80
2022/12/27 05:57:22;;;;;;;16.20;4.97;;;;;;;0.82;100.00;102440.97;5081115;28;20486;-79
2022/12/27 05:59:48;;;;;;;12.68;4.85;;;;;;;0.82;100.00;102440.97;5070255;28;20025;-80
2022/12/27 06:02:13;;;;;;;16.52;4.90;;;;;;;0.78;100.00;102446.75;5066258;28;20059;-80
2022/12/27 06:04:38;;;;;;;21.75;5.80;;;;;;;0.81;100.00;102463.16;5077528;28;20016;-80
2022/12/27 06:07:04;;;;;;;15.88;4.93;;;;;;;0.79;100.00;102461.38;5094834;28;20569;-79
2022/12/27 06:09:29;;;;;;;17.70;4.80;;;;;;;0.69;100.00;102450.72;5080467;28;20032;-79
2022/12/27 06:11:54;;;;;;;20.08;4.90;;;;;;;0.68;100.00;102454.06;5094209;28;20024;-79
2022/12/27 06:14:20;;;;;;;19.42;5.10;;;;;;;0.67;100.00;102461.72;5081427;28;20031;-80
2022/12/27 06:16:45;;;;;;;21.98;5.63;;;;;;;0.61;100.00;102448.63;5065334;28;20100;-79
2022/12/27 06:19:10;;;;;;;12.45;4.95;;;;;;;0.60;100.00;102450.31;5073856;28;20024;-80
2022/12/27 06:21:36;;;;;;;15.80;4.78;;;;;;;0.55;100.00;102454.34;5074197;28;20365;-79
2022/12/27 06:24:01;;;;;;;16.80;4.60;;;;;;;0.50;100.00;102455.00;5073619;28;20025;-79
2022/12/27 06:26:28;;;;;;;16.40;5.22;;;;;;;0.45;100.00;102453.06;5075204;28;20078;-79
2022/12/27 06:28:55;;;;;;;16.48;4.88;;;;;;;0.47;100.00;102453.16;5088172;28;20021;-80
2022/12/27 06:31:21;;;;;;;19.23;5.60;;;;;;;0.52;100.00;102449.09;5086830;28;20479;-79
2022/12/27 06:33:47;;;;;;;22.33;5.97;;;;;;;0.56;100.00;102458.69;5089325;28;20472;-79
2022/12/27 06:36:15;;;;;;;18.17;5.10;;;;;;;0.59;100.00;102463.97;5073895;28;20032;-80
2022/12/27 06:38:40;;;;;;;16.80;5.55;;;;;;;0.60;100.00;102462.28;5069751;28;20021;-80
2022/12/27 06:41:09;;;;;;;19.23;5.43;;;;;;;0.62;100.00;102469.22;5073118;28;20460;-79
2022/12/27 06:43:35;;;;;;;23.05;5.88;;;;;;;0.63;100.00;102455.56;5080016;28;20028;-79
2022/12/27 06:46:03;;;;;;;19.88;6.00;;;;;;;0.56;100.00;102468.97;5093728;28;20368;-79
2022/12/27 06:48:29;;;;;;;11.75;5.15;;;;;;;0.39;100.00;102450.28;5079445;28;20140;-80
2022/12/27 06:50:54;;;;;;;21.27;5.63;;;;;;;0.36;100.00;102451.78;5080170;28;20107;-79
2022/12/27 06:53:20;;;;;;;16.58;5.78;;;;;;;0.30;100.00;102455.00;5081177;28;20025;-79
2022/12/27 06:55:46;;;;;;;17.70;5.47;;;;;;;0.44;100.00;102463.28;5074188;28;20433;-80
2022/12/27 06:58:12;;;;;;;22.52;6.38;;;;;;;0.46;100.00;102467.69;5094123;28;20095;-80
2022/12/27 07:00:37;;;;;;;26.73;6.57;;;;;;;0.51;100.00;102462.75;5093726;28;20039;-79
2022/12/27 07:03:03;;;;;;;22.20;6.78;;;;;;;0.47;100.00;102460.84;5080000;28;20099;-80
2022/12/27 07:05:29;;;;;;;27.95;6.88;;;;;;;0.44;100.00;102464.16;5083943;28;20064;-80
2022/12/27 07:07:54;;;;;;;21.77;7.30;;;;;;;0.44;100.00;102470.97;5073607;28;20017;-80
2022/12/27 07:10:20;;;;;;;18.77;6.85;;;;;;;0.33;100.00;102467.97;5073673;28;20033;-80
2022/12/27 07:12:45;;;;;;;26.83;7.32;;;;;;;0.33;100.00;102473.09;5073313;28;20031;-79
2022/12/27 07:15:10;;;;;;;19.75;6.85;;;;;;;0.38;100.00;102475.84;5072775;28;20487;-80
2022/12/27 07:17:36;;;;;;;29.27;7.30;;;;;;;0.46;100.00;102477.06;5065846;28;20476;-79
2022/12/27 07:20:03;;;;;;;27.50;7.57;;;;;;;0.53;100.00;102481.66;5077101;28;20024;-80
2022/12/27 07:22:28;;;;;;;22.10;7.75;;;;;;;0.53;100.00;102476.53;5092845;28;20258;-80
2022/12/27 07:24:54;;;;;;;24.92;7.65;;;;;;;0.49;100.00;102476.31;5077450;28;20111;-80
2022/12/27 07:27:19;;;;;;;27.30;7.50;;;;;;;0.55;100.00;102485.16;5072580;28;20055;-79
2022/12/27 07:29:44;;;;;;;20.10;7.28;;;;;;;0.67;100.00;102488.25;5087285;28;20464;-80
2022/12/27 07:32:09;;;;;;;21.48;8.18;;;;;;;0.72;100.00;102490.13;5078794;28;20024;-79
2022/12/27 07:34:35;;;;;;;20.73;7.95;;;;;;;0.79;100.00;102499.88;5080634;28;20024;-80
2022/12/27 07:37:00;;;;;;;29.92;8.80;;;;;;;0.81;100.00;102493.97;5058818;28;20073;-79
2022/12/27 07:39:26;;;;;;;28.38;8.32;;;;;;;0.82;100.00;102497.44;5073068;28;20096;-80
2022/12/27 07:41:52;;;;;;;26.77;8.27;;;;;;;0.79;100.00;102497.31;5058247;28;20033;-80
2022/12/27 07:44:17;;;;;;;24.98;8.27;;;;;;;0.71;100.00;102489.25;5072787;28;20058;-80
2022/12/27 07:46:44;;;;;;;24.38;7.78;;;;;;;0.70;100.00;102498.66;5072922;28;20087;-80
2022/12/27 07:49:10;;;;;;;28.67;8.23;;;;;;;0.69;100.00;102502.06;5086132;28;20490;-79
2022/12/27 07:51:36;;;;;;;24.35;7.65;;;;;;;0.67;100.00;102505.34;5085170;28;20356;-79
2022/12/27 07:54:02;;;;;;;32.55;8.35;;;;;;;0.71;100.00;102499.53;5079068;28;20029;-79
2022/12/27 07:56:28;;;;;;;27.52;8.15;;;;;;;0.64;100.00;102485.56;5063749;28;20052;-79
2022/12/27 07:58:58;;;;;;;26.63;9.38;;;;;;;0.77;100.00;102501.50;5080933;28;20029;-79
2022/12/27 08:01:25;;;;;;;30.83;9.25;;;;;;;0.77;100.00;102496.34;5077044;28;20085;-79
2022/12/27 08:03:51;;;;;;;28.38;9.02;;;;;;;0.81;100.00;102503.38;5092100;28;20103;-79
2022/12/27 08:06:19;;;;;;;22.52;8.80;;;;;;;0.82;100.00;102510.28;5075567;28;20918;-79
2022/12/27 08:08:45;;;;;;;32.83;9.73;;;;;;;0.84;100.00;102504.38;5063589;28;20380;-80
2022/12/27 08:11:11;;;;;;;21.13;8.98;;;;;;;0.79;100.00;102497.31;5067815;28;20024;-79
2022/12/27 08:13:36;;;;;;;24.75;9.10;;;;;;;0.78;100.00;102504.13;5085765;28;20058;-80
2022/12/27 08:16:02;;;;;;;30.35;9.07;;;;;;;0.89;100.00;102518.31;5072376;28;20024;-79
2022/12/27 08:18:27;;;;;;;27.50;10.10;;;;;;;0.88;100.00;102523.38;5071263;28;20025;-79
2022/12/27 08:20:53;;;;;;;24.83;9.82;;;;;;;0.96;100.00;102524.59;5083640;28;20034;-79
2022/12/27 08:23:18;;;;;;;23.70;9.18;;;;;;;0.97;100.00;102528.03;5092235;28;20020;-80
2022/12/27 08:25:44;;;;;;;19.52;10.43;;;;;;;0.93;100.00;102521.88;5090910;28;20043;-79
2022/12/27 08:28:12;;;;;;;34.08;9.85;;;;;;;0.97;100.00;102531.47;5091683;28;20028;-79
2022/12/27 08:30:39;;;;;;;29.52;9.63;;;;;;;0.97;100.00;102535.72;5071850;28;20052;-79
2022/12/27 08:33:04;;;;;;;32.10;9.98;;;;;;;0.96;100.00;102536.56;5072075;28;20439;-80
2022/12/27 08:35:29;;;;;;;29.17;10.80;;;;;;;1.00;100.00;102535.88;5077478;28;20106;-79
2022/12/27 08:37:55;;;;;;;34.88;11.05;;;;;;;1.04;100.00;102542.88;5232006;22;20103;-79
2022/12/27 08:40:21;;;;;;;30.35;11.35;;;;;;;1.02;100.00;102522.28;5043758;28;20028;-79
2022/12/27 08:42:46;;;;;;;25.50;10.57;;;;;;;1.13;100.00;102531.31;5072167;28;20435;-79
2022/12/27 08:45:12;;;;;;;32.60;10.77;;;;;;;1.06;100.00;102516.44;5071000;28;20108;-79
2022/12/27 08:47:38;;;;;;;23.42;10.32;;;;;;;1.11;100.00;102512.41;5072007;28;20035;-80
2022/12/27 08:50:03;;;;;;;30.92;11.25;;;;;;;1.23;100.00;102516.28;5071889;28;20027;-79
2022/12/27 08:52:29;;;;;;;31.50;10.40;;;;;;;1.23;100.00;102509.44;5071220;28;20086;-79
2022/12/27 08:54:54;;;;;;;30.15;10.20;;;;;;;1.30;100.00;102513.16;5064890;28;20056;-80
2022/12/27 08:57:19;;;;;;;27.48;10.07;;;;;;;1.32;100.00;102508.97;5064769;28;20115;-79
2022/12/27 08:59:45;;;;;;;23.17;10.20;;;;;;;1.33;100.00;102523.56;5061742;28;20104;-79
2022/12/27 09:02:13;;;;;;;21.65;9.48;;;;;;;1.39;100.00;102523.81;5053385;28;20484;-80
2022/12/27 09:04:38;;;;;;;33.00;10.38;;;;;;;1.45;100.00;102529.19;5037773;28;20032;-79
2022/12/27 09:07:03;;;;;;;26.92;10.18;;;;;;;1.47;100.00;102527.59;5040736;28;20045;-79
2022/12/27 09:09:29;;;;;;;26.38;10.45;;;;;;;1.44;100.00;102517.19;5067047;28;20104;-79
2022/12/27 09:11:54;;;;;;;38.67;11.05;;;;;;;1.50;100.00;102522.53;5071998;28;20033;-79
2022/12/27 09:14:20;;;;;;;28.25;9.75;;;;;;;1.49;100.00;102520.78;5071188;28;20020;-79
2022/12/27 09:16:45;;;;;;;26.33;10.05;;;;;;;1.47;100.00;102516.41;5059305;28;20425;-79
2022/12/27 09:19:11;;;;;;;25.95;9.25;;;;;;;1.45;100.00;102513.78;5051879;28;20372;-79
2022/12/27 09:21:39;;;;;;;35.60;9.93;;;;;;;1.61;100.00;102525.56;5062379;28;20025;-79
2022/12/27 09:24:04;;;;;;;30.30;9.88;;;;;;;1.66;100.00;102520.59;5050118;28;20020;-79
2022/12/27 09:26:30;;;;;;;23.75;9.77;;;;;;;1.70;100.00;102520.78;5071407;28;20091;-79
2022/12/27 09:28:56;;;;;;;30.92;10.95;;;;;;;1.78;100.00;102523.66;5071248;28;20055;-79
2022/12/27 09:31:22;;;;;;;27.42;10.13;;;;;;;1.77;100.00;102521.91;5058509;28;20074;-79
2022/12/27 09:33:48;;;;;;;23.30;9.88;;;;;;;1.84;100.00;102535.06;5070840;28;20047;-79
2022/12/27 09:36:16;;;;;;;27.95;9.88;;;;;;;1.90;100.00;102518.09;5073016;28;20363;-79
2022/12/27 09:38:43;;;;;;;28.65;10.40;;;;;;;2.00;100.00;102533.97;5075128;28;20036;-80
2022/12/27 09:41:35;;;;;;;25.17;10.20;;;;;;;2.08;100.00;102539.41;5074314;28;20028;-79
2022/12/27 09:44:19;;;;;;;21.15;9.55;;;;;;;2.07;100.00;102522.22;5075365;28;20063;-80
2022/12/27 09:46:51;;;;;;;26.42;10.55;;;;;;;2.21;100.00;102538.19;5075682;28;20039;-79
2022/12/27 09:49:25;;;;;;;27.70;10.65;;;;;;;2.25;100.00;102534.88;5047597;28;20017;-79
2022/12/27 09:51:56;;;;;;;22.45;10.32;;;;;;;2.29;100.00;102529.06;5075224;28;20028;-79
2022/12/27 09:54:28;;;;;;;27.05;10.30;;;;;;;2.36;100.00;102530.16;5074935;28;20029;-79
2022/12/27 09:56:55;;;;;;;27.38;10.15;;;;;;;2.43;100.00;102533.00;5074617;28;20059;-79
2022/12/27 09:59:38;;;;;;;26.10;11.05;;;;;;;2.47;100.00;102531.44;5074607;28;20025;-79
2022/12/27 10:02:27;;;;;;;31.13;11.55;;;;;;;2.47;100.00;102527.16;5074210;28;20495;-79
2022/12/27 10:04:54;;;;;;;24.67;9.82;;;;;;;2.59;100.00;102531.88;5060800;28;20044;-78
2022/12/27 10:07:48;;;;;;;20.23;9.27;;;;;;;2.66;100.00;102535.56;5052302;28;20029;-79
2022/12/27 10:10:46;;;;;;;22.77;9.32;;;;;;;2.73;100.00;102538.41;5035274;28;20115;-79
2022/12/27 10:13:16;;;;;;;24.38;8.93;;;;;;;2.82;100.00;102543.00;5027196;28;20028;-79
2022/12/27 10:16:08;;;;;;;26.98;9.40;;;;;;;2.56;100.00;102488.88;5132736;23;20139;-79
2022/12/27 10:18:58;;;;;;;17.27;8.80;;;;;;;2.95;100.00;102546.91;5094618;28;20099;-80
2022/12/27 10:22:10;;;;;;;20.45;8.57;;;;;;;2.70;100.00;102491.06;5094482;28;20046;-79
2022/12/27 10:25:03;;;;;;;18.02;8.40;;;;;;;2.63;100.00;102473.66;5031482;28;20108;-79
2022/12/27 10:27:48;;;;;;;23.23;8.73;;;;;;;3.09;100.00;102525.03;5094306;28;20040;-80
2022/12/27 10:30:30;;;;;;;16.08;8.07;;;;;;;3.10;100.00;102526.78;5093582;28;20040;-80
2022/12/27 10:32:58;;;;;;;18.17;7.80;;;;;;;2.97;100.00;102497.16;5094966;28;20110;-79
2022/12/27 10:35:25;;;;;;;20.90;8.32;;;;;;;3.27;100.00;102533.41;5094374;28;20016;-79
2022/12/27 10:38:09;;;;;;;17.17;7.93;;;;;;;3.19;100.00;102503.91;5090547;28;20391;-79
2022/12/27 10:41:12;;;;;;;22.00;7.57;;;;;;;3.46;100.00;102531.41;5094850;28;20031;-79
2022/12/27 10:43:53;;;;;;;14.98;7.15;;;;;;;3.40;100.00;102514.06;5094465;28;20079;-79
2022/12/27 10:46:38;;;;;;;17.55;7.18;;;;;;;3.47;100.00;102515.16;5083298;28;20025;-79
2022/12/27 10:49:56;;;;;;;15.75;7.00;;;;;;;3.65;100.00;102520.00;5092831;28;20044;-79
2022/12/27 10:52:41;;;;;;;14.88;7.07;;;;;;;3.65;100.00;102517.44;5093097;28;20020;-79
2022/12/27 10:55:36;;;;;;;18.20;7.78;;;;;;;3.89;100.00;102536.28;5094624;28;20024;-79
2022/12/27 10:58:48;;;;;;;13.68;6.55;;;;;;;4.10;100.00;102530.88;5094306;28;20012;-79
2022/12/27 11:01:34;;;;;;;20.27;7.43;;;;;;;4.25;100.00;102538.22;5094072;28;20020;-79
2022/12/27 11:04:22;;;;;;;16.25;6.60;;;;;;;4.02;100.00;102480.72;5094132;28;20028;-80
2022/12/27 11:07:17;;;;;;;18.17;6.32;;;;;;;4.25;100.00;102494.31;5079957;28;20058;-79
2022/12/27 11:09:44;;;;;;;14.63;5.70;;;;;;;4.55;100.00;102519.28;5084774;28;20044;-79
2022/12/27 11:12:23;;;;;;;12.80;5.60;;;;;;;4.63;100.00;102520.34;5093738;28;20034;-80
2022/12/27 11:15:04;;;;;;;14.93;5.50;;;;;;;4.71;100.00;102518.88;5079516;28;20050;-79
2022/12/27 11:17:45;;;;;;;14.07;5.35;;;;;;;4.77;100.00;102513.84;5093803;28;20020;-79
2022/12/27 11:20:11;;;;;;;10.30;5.15;;;;;;;4.85;100.00;102516.66;5092477;28;20023;-79
2022/12/27 11:22:50;;;;;;;12.43;5.13;;;;;;;4.92;100.00;102518.56;5093968;28;20028;-80
2022/12/27 11:25:15;;;;;;;10.20;4.50;;;;;;;4.95;100.00;102510.88;5093562;28;20024;-80
2022/12/27 11:27:47;;;;;;;8.75;4.55;;;;;;;5.03;100.00;102509.34;5092882;28;20077;-80
2022/12/27 11:30:50;;;;;;;11.95;4.80;;;;;;;5.11;100.00;102509.56;5093235;28;20063;-79
2022/12/27 11:33:23;;;;;;;13.63;4.90;;;;;;;5.21;100.00;102510.69;5080704;28;20028;-80
2022/12/27 11:35:51;;;;;;;13.65;4.80;;;;;;;5.17;100.00;102496.81;5093220;28;20032;-79
2022/12/27 11:38:32;;;;;;;9.52;4.30;;;;;;;5.29;100.00;102512.59;5091356;28;20047;-79
2022/12/27 11:41:18;;;;;;;7.63;4.32;;;;;;;5.28;100.00;102513.44;5092661;28;20038;-79
2022/12/27 11:43:57;;;;;;;12.10;4.30;;;;;;;5.21;100.00;102503.81;5100055;22;20036;-80
2022/12/27 11:46:44;;;;;;;10.85;4.43;;;;;;;5.00;100.00;102477.38;5292522;22;20008;-79
2022/12/27 11:49:50;;;;;;;13.57;4.45;;;;;;;5.26;100.00;102502.19;5065459;28;20040;-79
2022/12/27 11:56:23;;;;;;;10.20;4.32;;;;;;;5.33;100.00;102504.13;5085495;28;20105;-79
2022/12/27 11:59:39;;;;;;;8.75;3.88;;;;;;;5.27;100.00;102493.63;5069948;28;20041;-80
2022/12/27 12:02:57;;;;;;;8.23;3.47;;;;;;;5.18;100.00;102488.22;5082668;28;20110;-80
2022/12/27 12:06:08;;;;;;;11.45;3.90;;;;;;;5.13;100.00;102489.78;5081795;28;20491;-79
2022/12/27 12:09:10;;;;;;;9.23;3.97;;;;;;;5.07;100.00;102489.66;5079782;28;20429;-79
2022/12/27 12:12:22;;;;;;;10.43;4.05;;;;;;;5.04;100.00;102485.28;5092614;28;20036;-79
2022/12/27 12:15:09;;;;;;;10.30;3.83;;;;;;;5.00;100.00;102480.84;5092561;28;20032;-79
2022/12/27 12:18:08;;;;;;;9.90;3.90;;;;;;;4.98;100.00;102479.94;5092216;28;20028;-79
2022/12/27 12:20:49;;;;;;;11.00;3.75;;;;;;;5.01;100.00;102471.41;5080909;28;20429;-79
2022/12/27 12:23:51;;;;;;;10.77;4.10;;;;;;;5.01;100.00;102464.53;5091519;28;20028;-80
2022/12/27 12:26:23;;;;;;;8.50;4.15;;;;;;;4.96;100.00;102462.66;5092525;28;20054;-79
2022/12/27 12:29:16;;;;;;;7.53;3.05;;;;;;;4.92;100.00;102469.44;5072446;28;20387;-79
2022/12/27 12:32:22;;;;;;;10.10;3.97;;;;;;;4.94;100.00;102472.97;5087884;28;20038;-79
2022/12/27 12:35:05;;;;;;;13.73;4.63;;;;;;;4.90;100.00;102461.66;5092945;28;20103;-79
2022/12/27 12:37:48;;;;;;;12.82;3.95;;;;;;;4.96;100.00;102472.97;5079382;28;20031;-79
2022/12/27 12:40:22;;;;;;;6.25;3.60;;;;;;;4.88;100.00;102462.47;5092083;28;20039;-79
2022/12/27 12:43:15;;;;;;;8.80;4.10;;;;;;;4.76;100.00;102455.25;5092499;28;20028;-79
2022/12/27 12:45:59;;;;;;;10.63;3.88;;;;;;;4.70;100.00;102463.72;5091923;28;20020;-79
2022/12/27 12:48:40;;;;;;;9.85;4.53;;;;;;;4.64;100.00;102452.34;5092372;28;20154;-79
2022/12/27 12:51:23;;;;;;;9.55;4.13;;;;;;;4.61;100.00;102462.59;5091950;28;20306;-79
2022/12/27 12:53:57;;;;;;;13.02;4.03;;;;;;;4.57;100.00;102440.09;5092386;28;20048;-79
2022/12/27 12:56:50;;;;;;;7.45;3.95;;;;;;;4.54;100.00;102434.84;5092091;28;20032;-79
2022/12/27 12:59:15;;;;;;;11.63;4.00;;;;;;;4.57;100.00;102429.75;5091216;28;20024;-79
2022/12/27 13:02:05;;;;;;;8.73;4.20;;;;;;;4.62;100.00;102418.72;5092121;28;20464;-80
2022/12/27 13:04:47;;;;;;;8.30;4.20;;;;;;;4.66;100.00;102419.69;5091886;28;20051;-80
2022/12/27 13:07:40;;;;;;;11.80;4.18;;;;;;;4.66;100.00;102401.59;5091580;28;20089;-80
2022/12/27 13:10:08;;;;;;;9.13;3.92;;;;;;;4.65;100.00;102402.44;5077936;28;20076;-79
2022/12/27 13:12:53;;;;;;;9.60;4.13;;;;;;;4.64;100.00;102400.66;5095540;28;20028;-80
2022/12/27 13:15:40;;;;;;;7.63;3.45;;;;;;;4.58;100.00;102396.25;5075803;28;20028;-79
2022/12/27 13:18:30;;;;;;;7.35;3.33;;;;;;;4.55;100.00;102387.53;5091824;28;20028;-79
2022/12/27 13:21:12;;;;;;;12.23;4.00;;;;;;;4.51;100.00;102381.38;5095566;28;20039;-80
2022/12/27 13:23:50;;;;;;;12.85;4.10;;;;;;;4.42;100.00;102379.47;5096389;28;20024;-80